WetterOnline ( http://www.wetteronline.de )

Wetter aktuell Helgoland

Aktuelles Wetter: Helgoland/Düne (8m)

6-stündlich | Neueste Meldungen
Ortszeit Temperatur Wetter
Di, 20.11. 13:00 5.8° C bedeckt
Di, 20.11. 7:00 5.4° C bewölkt
Di, 20.11. 1:00 7.0° C bedeckt
Mo, 19.11. 19:00 6.3° C bedeckt
Mo, 19.11. 13:00 6.8° C bewölkt
Mo, 19.11. 7:00 6.2° C wolkenlos
Mo, 19.11. 1:00 7.0° C wolkig
So, 18.11. 19:00 7.8° C bedeckt
Ortszeit Temperatur Wetter
Di, 20.11. 15:30 5.5° C bewölkt
Di, 20.11. 15:20 5.5° C leichter Regen
Di, 20.11. 15:00 5.7° C bedeckt
Di, 20.11. 14:50 5.7° C bedeckt
Di, 20.11. 14:40 5.4° C bedeckt
Di, 20.11. 14:30 5.5° C bewölkt
Di, 20.11. 14:00 5.2° C bedeckt
Di, 20.11. 13:30 5.6° C bedeckt
Di, 20.11. 13:00 5.8° C bedeckt
Di, 20.11. 12:30 5.4° C bedeckt
Ortszeit Relative Feuchte Sichtweite
Di, 20.11. 13:00 71% 28 km
Di, 20.11. 7:00 72% 25 km
Di, 20.11. 1:00 67% 35 km
Mo, 19.11. 19:00 82% 40 km
Mo, 19.11. 13:00 78% 30 km
Mo, 19.11. 7:00 81% 35 km
Mo, 19.11. 1:00 76% 40 km
So, 18.11. 19:00 75% 30 km
Ortszeit Relative Feuchte Sichtweite
Di, 20.11. 15:30 75% 19 km
Di, 20.11. 15:20 75% -
Di, 20.11. 15:00 72% 26 km
Di, 20.11. 14:50 72% -
Di, 20.11. 14:40 73% -
Di, 20.11. 14:30 72% 29 km
Di, 20.11. 14:00 69% 30 km
Di, 20.11. 13:30 71% 30 km
Di, 20.11. 13:00 71% 28 km
Di, 20.11. 12:30 70% 29 km
Ortszeit Niederschlagsmenge Niederschlagsart
Di, 20.11. 13:00 0.0 l/m2 in 6 Std. -
Di, 20.11. 7:00 0.1 l/m2 in 12 Std. -
Di, 20.11. 1:00 0.1 l/m2 in 6 Std. Regen
Mo, 19.11. 19:00 0.7 l/m2 in 12 Std. Regen
Mo, 19.11. 13:00 0.0 l/m2 in 6 Std. -
Mo, 19.11. 7:00 0.0 l/m2 in 12 Std. -
Mo, 19.11. 1:00 0.0 l/m2 in 6 Std. -
So, 18.11. 19:00 0.0 l/m2 in 12 Std. -
Ortszeit Niederschlagsmenge Niederschlagsart
Di, 20.11. 15:30 0.1 l/m2 in 1 Std. Schneeregen
Di, 20.11. 15:20 keine Meldung -
Di, 20.11. 15:00 0.0 l/m2 in 1 Std. -
Di, 20.11. 14:50 keine Meldung -
Di, 20.11. 14:40 keine Meldung -
Di, 20.11. 14:30 0.0 l/m2 in 1 Std. -
Di, 20.11. 14:00 0.0 l/m2 in 1 Std. -
Di, 20.11. 13:30 0.0 l/m2 in 1 Std. -
Di, 20.11. 13:00 0.0 l/m2 in 1 Std. -
Di, 20.11. 12:30 0.0 l/m2 in 1 Std. -
Ortszeit Stärke Spitze Richtung
km/h Bft. km/h Grad Sektor
Di, 20.11. 13:00 58 7 90 90° O
Di, 20.11. 7:00 65 8 79 90° O
Di, 20.11. 1:00 58 7 72 90° O
Mo, 19.11. 19:00 52 7 70 70° O
Mo, 19.11. 13:00 54 7 72 60° NO
Mo, 19.11. 7:00 54 7 65 60° NO
Mo, 19.11. 1:00 48 6 61 60° NO
So, 18.11. 19:00 41 6 56 80° O
Ortszeit Stärke Spitze Richtung
km/h Bft. km/h Grad Sektor
Di, 20.11. 15:30 65 8 83 110° O
Di, 20.11. 15:20 65 8 - 110° O
Di, 20.11. 15:00 61 7 72 110° O
Di, 20.11. 14:50 61 7 - 110° O
Di, 20.11. 14:40 57 7 - 110° O
Di, 20.11. 14:30 61 7 72 100° O
Di, 20.11. 14:00 61 7 76 100° O
Di, 20.11. 13:30 58 7 76 100° O
Di, 20.11. 13:00 58 7 76 90° O
Di, 20.11. 12:30 58 7 76 90° O
Ortszeit Untergrenze Bedeckung Gattung
total tief tief mittel hoch
Di, 20.11. 13:00 750 m 8/8 8/8 - - -
Di, 20.11. 7:00 720 m 7/8 7/8 - - -
Di, 20.11. 1:00 1800 m 8/8 8/8 - - -
Mo, 19.11. 19:00 480 m 8/8 8/8 - - -
Mo, 19.11. 13:00 540 m 7/8 7/8 - - -
Mo, 19.11. 7:00 480 m 0/8 0/8 - - -
Mo, 19.11. 1:00 600 m 8/8 2/8 - - -
So, 18.11. 19:00 720 m 8/8 8/8 - - -
Ortszeit Bedeckungsgrad in Achtel und Wolkenuntergrenze
Di, 20.11. 15:30 6(660m) 7(840m)
Di, 20.11. 15:20 6(660m) 7(840m)
Di, 20.11. 15:00 7(630m) 8(810m)
Di, 20.11. 14:50 7(630m) 8(810m)
Di, 20.11. 14:40 6(630m) 8(780m)
Di, 20.11. 14:30 7(750m) 7(930m)
Di, 20.11. 14:00 6(690m) 7(900m) 8(1140m)
Di, 20.11. 13:30 6(690m) 8(870m)
Di, 20.11. 13:00 6(750m) 8(870m)
Di, 20.11. 12:30 7(750m) 8(900m) 8(2100m)
Ortszeit Luftdruck NN (hPa) Tendenz (hPa in 3 Std.)
Di, 20.11. 13:00 1017 - 1,9
Di, 20.11. 7:00 1020 - 1,3
Di, 20.11. 1:00 1023 - 1,3
Mo, 19.11. 19:00 1025 - 0,2
Mo, 19.11. 13:00 1026 - 1,3
Mo, 19.11. 7:00 1028 - 1,1
Mo, 19.11. 1:00 1031 - 1,0
So, 18.11. 19:00 1032 - 0,3
Ortszeit Luftdruck NN (hPa) Tendenz (hPa in 3 Std.)
Di, 20.11. 15:30 1016 - 1,7
Di, 20.11. 15:20 1016 keine Meldung
Di, 20.11. 15:00 1016 - 1,6
Di, 20.11. 14:50 1016 keine Meldung
Di, 20.11. 14:40 1016 keine Meldung
Di, 20.11. 14:30 1017 - 1,7
Di, 20.11. 14:00 1017 - 2,1
Di, 20.11. 13:30 1017 - 2,0
Di, 20.11. 13:00 1017 - 1,9
Di, 20.11. 12:30 1018 - 1,5
Ortszeit Schneehöhe (cm)
Di, 20.11. 13:00 0
Di, 20.11. 7:00 0
Di, 20.11. 1:00 0
Mo, 19.11. 19:00 0
Mo, 19.11. 13:00 0
Mo, 19.11. 7:00 0
Mo, 19.11. 1:00 0
So, 18.11. 19:00 0
Ortszeit Schneehöhe (cm)
Di, 20.11. 15:30 0
Di, 20.11. 15:20 0
Di, 20.11. 15:00 0
Di, 20.11. 14:50 0
Di, 20.11. 14:40 0
Di, 20.11. 14:30 0
Di, 20.11. 14:00 0
Di, 20.11. 13:30 0
Di, 20.11. 13:00 0
Di, 20.11. 12:30 0
Link zu dieser Seite / Seite empfehlen

Das Wetter in ...